Time;durP1;ratioP1;P1;durP2;ratioP2;P2;SDS_P1;SDS_P2;PMS_P1;PMS_P2;Temp;Humidity;BMP_temperature;BMP_pressure;BME280_temperature;BME280_humidity;BME280_pressure;Samples;Min_cycle;Max_cycle;Signal;HPM_P1;HPM_P2
2023/04/27 00:00:35;;;;;;;12.98;7.50;;;1.00;99.90;;;;;;5026885;28;20053;-65
2023/04/27 00:03:04;;;;;;;13.63;7.07;;;1.10;99.90;;;;;;5027676;28;20427;-65
2023/04/27 00:05:37;;;;;;;12.35;7.18;;;1.00;99.90;;;;;;5026143;28;20119;-65
2023/04/27 00:08:07;;;;;;;13.25;7.10;;;1.00;99.90;;;;;;5025869;28;20829;-65
2023/04/27 00:10:33;;;;;;;11.73;7.40;;;1.20;99.90;;;;;;5025766;28;20441;-65
2023/04/27 00:13:00;;;;;;;14.40;7.32;;;1.20;99.90;;;;;;5011630;28;20401;-65
2023/04/27 00:15:26;;;;;;;11.70;6.78;;;1.00;99.90;;;;;;5023505;28;20056;-65
2023/04/27 00:17:52;;;;;;;10.13;6.32;;;0.90;99.90;;;;;;5026412;28;20517;-65
2023/04/27 00:20:18;;;;;;;15.73;7.70;;;0.90;99.90;;;;;;4983517;28;20040;-65
2023/04/27 00:22:44;;;;;;;14.50;7.10;;;0.90;99.90;;;;;;5026816;28;20145;-65
2023/04/27 00:25:10;;;;;;;13.27;7.15;;;0.90;99.90;;;;;;5011151;28;20041;-65
2023/04/27 00:27:36;;;;;;;11.75;7.00;;;0.90;99.90;;;;;;4996960;28;20033;-65
2023/04/27 00:30:03;;;;;;;10.77;6.65;;;0.90;99.90;;;;;;5030691;28;20045;-65
2023/04/27 00:32:29;;;;;;;12.95;7.07;;;0.80;99.90;;;;;;5027907;28;20051;-65
2023/04/27 00:34:54;;;;;;;10.32;6.55;;;0.80;99.90;;;;;;5029578;28;20493;-65
2023/04/27 00:37:20;;;;;;;10.95;7.28;;;0.80;99.90;;;;;;5030576;28;20037;-65
2023/04/27 00:39:46;;;;;;;11.98;7.68;;;0.80;99.90;;;;;;5029775;28;20346;-65
2023/04/27 00:42:16;;;;;;;13.20;6.90;;;1.20;99.90;;;;;;5013779;28;20132;-65
2023/04/27 00:44:41;;;;;;;11.88;7.00;;;0.50;99.90;;;;;;5028378;28;20060;-65
2023/04/27 00:47:09;;;;;;;14.00;6.80;;;0.90;99.90;;;;;;5020648;28;20473;-65
2023/04/27 00:49:34;;;;;;;12.30;7.05;;;0.80;99.90;;;;;;5029002;28;20500;-65
2023/04/27 00:52:01;;;;;;;10.27;6.70;;;0.80;99.90;;;;;;5029511;28;20045;-65
2023/04/27 00:54:27;;;;;;;11.52;6.68;;;0.80;99.90;;;;;;5027208;28;20115;-65
2023/04/27 00:56:52;;;;;;;14.68;7.93;;;1.00;99.90;;;;;;5030122;28;20063;-65
2023/04/27 00:59:19;;;;;;;12.15;7.18;;;0.70;99.90;;;;;;5027854;28;20037;-65
2023/04/27 01:01:48;;;;;;;12.73;6.95;;;0.70;99.90;;;;;;4974198;28;1152390;-65
2023/04/27 01:04:16;;;;;;;16.10;6.85;;;0.70;99.90;;;;;;5029243;28;20037;-65
2023/04/27 01:06:42;;;;;;;14.75;8.18;;;0.70;99.90;;;;;;5029993;28;20045;-65
2023/04/27 01:09:08;;;;;;;14.23;7.22;;;0.70;99.90;;;;;;5013729;28;20114;-65
2023/04/27 01:11:35;;;;;;;13.02;8.20;;;0.70;99.90;;;;;;5030638;28;20036;-65
2023/04/27 01:14:04;;;;;;;10.10;6.82;;;0.80;99.90;;;;;;5030776;28;20033;-65
2023/04/27 01:16:34;;;;;;;10.35;5.88;;;0.60;99.90;;;;;;5031581;28;20095;-65
2023/04/27 01:18:59;;;;;;;13.30;6.95;;;0.60;99.90;;;;;;5027858;28;20081;-65
2023/04/27 01:21:26;;;;;;;10.02;7.18;;;0.60;99.90;;;;;;5030909;28;20045;-66
2023/04/27 01:23:52;;;;;;;13.07;6.82;;;0.60;99.90;;;;;;5030927;28;20441;-65
2023/04/27 01:26:18;;;;;;;13.65;6.90;;;0.60;99.90;;;;;;5030195;28;20091;-65
2023/04/27 01:28:44;;;;;;;10.35;6.72;;;0.60;99.90;;;;;;5029586;28;20472;-65
2023/04/27 01:31:10;;;;;;;10.80;7.32;;;0.60;99.90;;;;;;5030852;28;20090;-65
2023/04/27 01:33:40;;;;;;;11.40;7.32;;;0.60;99.90;;;;;;5020126;28;20045;-65
2023/04/27 01:36:07;;;;;;;14.52;7.32;;;0.60;99.90;;;;;;4982988;28;20063;-65
2023/04/27 01:38:33;;;;;;;16.58;7.35;;;0.50;99.90;;;;;;5013650;28;20052;-65
2023/04/27 01:41:02;;;;;;;13.43;7.57;;;0.50;99.90;;;;;;5029701;28;20056;-65
2023/04/27 01:43:28;;;;;;;11.90;7.60;;;0.50;99.90;;;;;;5011931;28;20098;-65
2023/04/27 01:45:54;;;;;;;11.43;6.88;;;0.50;99.90;;;;;;5013211;28;20037;-67
2023/04/27 01:48:20;;;;;;;15.32;6.35;;;0.50;99.90;;;;;;5013649;28;20183;-65
2023/04/27 01:50:46;;;;;;;14.30;7.55;;;0.50;99.90;;;;;;5029610;28;20490;-65
2023/04/27 01:53:12;;;;;;;17.13;7.18;;;0.60;99.90;;;;;;5029033;28;20073;-65
2023/04/27 01:55:37;;;;;;;14.23;7.03;;;0.60;99.90;;;;;;4996842;28;20112;-65
2023/04/27 01:58:03;;;;;;;12.35;7.38;;;0.50;99.90;;;;;;5029278;28;20033;-65
2023/04/27 02:00:29;;;;;;;11.50;6.65;;;0.80;99.90;;;;;;5029832;28;20049;-65
2023/04/27 02:02:56;;;;;;;11.32;7.40;;;0.50;99.90;;;;;;5012687;28;20508;-65
2023/04/27 02:05:23;;;;;;;14.75;7.57;;;0.60;99.90;;;;;;5029654;28;20167;-65
2023/04/27 02:07:49;;;;;;;12.57;7.20;;;0.60;99.90;;;;;;5030135;28;20063;-66
2023/04/27 02:10:15;;;;;;;11.43;7.05;;;0.60;99.90;;;;;;5028187;28;20049;-65
2023/04/27 02:12:41;;;;;;;14.88;6.75;;;0.70;99.90;;;;;;5013234;28;20041;-66
2023/04/27 02:15:07;;;;;;;14.00;7.10;;;0.70;99.90;;;;;;5029866;28;20132;-65
2023/04/27 02:17:34;;;;;;;14.43;7.45;;;0.70;99.90;;;;;;5026936;28;20047;-65
2023/04/27 02:20:00;;;;;;;13.93;7.93;;;0.70;99.90;;;;;;5026416;28;20076;-65
2023/04/27 02:22:25;;;;;;;11.95;6.82;;;0.70;99.90;;;;;;5030311;28;20098;-65
2023/04/27 02:24:51;;;;;;;12.90;7.50;;;0.70;99.90;;;;;;5029061;28;20052;-65
2023/04/27 02:27:17;;;;;;;12.23;7.03;;;0.70;99.90;;;;;;5012427;28;20374;-65
2023/04/27 02:29:42;;;;;;;11.98;7.03;;;0.60;99.90;;;;;;5009471;28;20076;-65
2023/04/27 02:32:08;;;;;;;11.45;6.13;;;0.60;99.90;;;;;;5029998;28;20075;-65
2023/04/27 02:34:34;;;;;;;13.15;6.80;;;0.60;99.90;;;;;;5029030;28;20478;-65
2023/04/27 02:37:00;;;;;;;15.25;7.32;;;0.60;99.90;;;;;;5029685;28;20509;-65
2023/04/27 02:39:25;;;;;;;14.00;7.32;;;0.60;99.90;;;;;;5028387;28;20171;-66
2023/04/27 02:41:51;;;;;;;11.88;6.82;;;0.60;99.90;;;;;;5028855;28;21444;-65
2023/04/27 02:44:17;;;;;;;16.13;7.75;;;0.50;99.90;;;;;;5029899;28;20033;-65
2023/04/27 02:46:42;;;;;;;12.30;6.78;;;0.50;99.90;;;;;;5010839;28;20086;-66
2023/04/27 02:49:08;;;;;;;10.60;6.60;;;0.80;99.90;;;;;;5027674;28;20040;-65
2023/04/27 02:51:34;;;;;;;14.50;7.88;;;0.50;99.90;;;;;;5027018;28;20083;-66
2023/04/27 02:54:00;;;;;;;12.55;7.10;;;0.40;99.90;;;;;;5012556;28;20094;-65
2023/04/27 02:56:25;;;;;;;11.73;7.47;;;0.40;99.90;;;;;;5028647;28;20692;-65
2023/04/27 02:58:51;;;;;;;10.15;6.90;;;0.60;99.90;;;;;;5028197;28;20159;-65
2023/04/27 03:01:17;;;;;;;15.07;7.60;;;0.40;99.90;;;;;;5027842;28;20083;-65
2023/04/27 03:03:46;;;;;;;17.20;8.05;;;0.30;99.90;;;;;;5026108;28;20102;-65
2023/04/27 03:06:12;;;;;;;13.88;8.20;;;0.40;99.90;;;;;;5009589;28;20041;-65
2023/04/27 03:08:38;;;;;;;12.88;7.82;;;0.20;99.90;;;;;;5012876;28;20037;-65
2023/04/27 03:11:04;;;;;;;12.45;8.57;;;0.20;99.90;;;;;;5011151;28;20556;-65
2023/04/27 03:13:30;;;;;;;12.55;7.55;;;0.20;99.90;;;;;;5047223;28;20040;-65
2023/04/27 03:15:56;;;;;;;15.30;8.05;;;0.20;99.90;;;;;;5011968;28;20414;-65
2023/04/27 03:18:22;;;;;;;16.85;8.23;;;0.10;99.90;;;;;;5028414;28;20557;-65
2023/04/27 03:20:47;;;;;;;12.63;8.13;;;0.00;99.90;;;;;;5012066;28;20037;-65
2023/04/27 03:23:13;;;;;;;15.32;8.10;;;0.00;99.90;;;;;;5028947;28;20037;-65
2023/04/27 03:25:39;;;;;;;16.70;8.70;;;0.00;99.90;;;;;;5008787;28;20064;-65
2023/04/27 03:28:05;;;;;;;17.58;9.05;;;-0.10;99.90;;;;;;5027740;28;20101;-65
2023/04/27 03:30:31;;;;;;;13.52;8.55;;;-0.10;99.90;;;;;;5011487;28;20032;-65
2023/04/27 03:32:57;;;;;;;14.05;8.10;;;-0.10;99.90;;;;;;5026957;28;20451;-65
2023/04/27 03:35:23;;;;;;;14.70;9.00;;;-0.20;99.90;;;;;;5027895;28;20033;-65
2023/04/27 03:37:48;;;;;;;12.45;8.00;;;-0.20;99.90;;;;;;5011305;28;20501;-65
2023/04/27 03:40:14;;;;;;;17.17;8.98;;;-0.30;99.90;;;;;;5027983;28;20173;-65
2023/04/27 03:42:40;;;;;;;13.38;7.90;;;-0.30;99.90;;;;;;5010092;28;20330;-65
2023/04/27 03:45:06;;;;;;;14.55;8.93;;;-0.30;99.90;;;;;;5027908;28;20066;-65
2023/04/27 03:47:32;;;;;;;18.10;9.32;;;-0.30;99.90;;;;;;5027915;28;20529;-65
2023/04/27 03:50:00;;;;;;;23.23;8.90;;;-0.30;99.90;;;;;;5027657;28;20083;-65
2023/04/27 03:52:26;;;;;;;12.07;7.95;;;-0.30;99.90;;;;;;5011691;28;20490;-65
2023/04/27 03:54:52;;;;;;;18.35;9.05;;;-0.40;99.90;;;;;;5028541;28;20040;-65
2023/04/27 03:57:17;;;;;;;14.23;8.52;;;-0.40;99.90;;;;;;5028086;28;20078;-65
2023/04/27 03:59:43;;;;;;;16.27;8.68;;;-0.40;99.90;;;;;;5044698;28;20059;-65
2023/04/27 04:02:10;;;;;;;16.38;9.15;;;-0.40;99.90;;;;;;5023738;28;20053;-65
2023/04/27 04:04:36;;;;;;;18.38;9.10;;;-0.40;99.90;;;;;;5024255;28;20041;-66
2023/04/27 04:07:02;;;;;;;15.43;9.35;;;-0.40;99.90;;;;;;5023575;28;20041;-65
2023/04/27 04:09:27;;;;;;;18.52;9.15;;;-0.30;99.90;;;;;;5008792;28;20044;-65
2023/04/27 04:11:53;;;;;;;15.85;9.10;;;-0.20;99.90;;;;;;5023734;28;20501;-65
2023/04/27 04:14:19;;;;;;;15.30;8.85;;;-0.50;99.90;;;;;;5024801;28;20513;-65
2023/04/27 04:16:45;;;;;;;15.52;9.50;;;-0.40;99.90;;;;;;5000652;28;20041;-65
2023/04/27 04:19:11;;;;;;;16.92;9.60;;;-0.50;99.90;;;;;;5024698;28;20045;-65
2023/04/27 04:21:36;;;;;;;16.70;9.23;;;-0.50;99.90;;;;;;5022897;28;20041;-65
2023/04/27 04:24:02;;;;;;;15.23;8.48;;;-0.50;99.90;;;;;;5023889;28;20068;-65
2023/04/27 04:26:29;;;;;;;12.65;8.30;;;-0.50;99.90;;;;;;5023483;28;20073;-65
2023/04/27 04:28:55;;;;;;;15.82;8.32;;;-0.50;99.90;;;;;;5021548;28;20042;-65
2023/04/27 04:31:21;;;;;;;15.02;8.55;;;-0.50;99.90;;;;;;5021289;28;20052;-65
2023/04/27 04:33:47;;;;;;;15.88;9.27;;;-0.50;99.90;;;;;;5017313;28;20494;-65
2023/04/27 04:36:13;;;;;;;14.85;8.55;;;-0.50;99.90;;;;;;5023217;28;20038;-65
2023/04/27 04:38:38;;;;;;;14.63;8.35;;;-0.50;99.90;;;;;;5023361;28;20148;-65
2023/04/27 04:41:04;;;;;;;20.27;9.55;;;-0.40;99.90;;;;;;5021470;28;20058;-65
2023/04/27 04:43:30;;;;;;;15.30;8.80;;;-0.50;99.90;;;;;;5024745;28;20045;-65
2023/04/27 04:45:55;;;;;;;18.80;8.98;;;-0.40;99.90;;;;;;5021737;28;20562;-65
2023/04/27 04:48:22;;;;;;;15.38;9.27;;;-0.40;99.90;;;;;;5024574;28;20053;-65
2023/04/27 04:50:48;;;;;;;16.20;8.77;;;-0.40;99.90;;;;;;5024039;28;21059;-65
2023/04/27 04:53:14;;;;;;;18.15;10.10;;;-0.40;99.90;;;;;;5021901;28;20029;-65
2023/04/27 04:55:40;;;;;;;15.98;8.20;;;-0.30;99.90;;;;;;5023438;28;20482;-65
2023/04/27 04:58:05;;;;;;;13.20;8.90;;;-0.30;99.90;;;;;;5006726;28;20045;-65
2023/04/27 05:00:31;;;;;;;20.35;9.55;;;-0.30;99.90;;;;;;5023933;28;20037;-65
2023/04/27 05:02:57;;;;;;;17.63;8.60;;;-0.20;99.90;;;;;;5005985;28;20510;-66
2023/04/27 05:05:23;;;;;;;16.77;9.15;;;-0.20;99.90;;;;;;5006042;28;20080;-65
2023/04/27 05:07:49;;;;;;;17.50;10.27;;;-0.20;99.90;;;;;;5022328;28;20076;-65
2023/04/27 05:10:14;;;;;;;22.13;9.48;;;0.00;99.90;;;;;;5003083;28;20049;-65
2023/04/27 05:12:40;;;;;;;21.35;9.95;;;0.10;99.90;;;;;;5024501;28;20033;-65
2023/04/27 05:15:06;;;;;;;14.50;9.27;;;0.30;99.90;;;;;;5026768;28;20059;-65
2023/04/27 05:17:32;;;;;;;18.98;9.45;;;0.20;99.90;;;;;;5025817;28;20048;-65
2023/04/27 05:19:58;;;;;;;16.92;9.48;;;0.30;99.90;;;;;;5026764;28;20033;-65
2023/04/27 05:22:23;;;;;;;20.85;8.80;;;0.30;99.90;;;;;;5024489;28;20037;-65
2023/04/27 05:24:49;;;;;;;16.05;9.18;;;0.40;99.90;;;;;;5026467;28;20176;-65
2023/04/27 05:27:15;;;;;;;19.77;8.75;;;0.40;99.90;;;;;;5008835;28;20045;-66
2023/04/27 05:29:41;;;;;;;19.52;9.13;;;0.50;99.90;;;;;;5009446;28;20048;-65
2023/04/27 05:32:07;;;;;;;16.50;9.20;;;0.60;99.90;;;;;;5010239;28;20124;-65
2023/04/27 05:34:35;;;;;;;18.65;9.55;;;0.70;99.90;;;;;;5007615;28;20034;-65
2023/04/27 05:37:00;;;;;;;15.63;9.00;;;0.80;99.90;;;;;;5026220;28;20107;-65
2023/04/27 05:39:26;;;;;;;16.50;8.65;;;0.90;99.90;;;;;;5023729;28;20079;-65
2023/04/27 05:41:52;;;;;;;18.67;8.48;;;1.00;99.90;;;;;;5024951;28;20091;-65
2023/04/27 05:44:18;;;;;;;22.70;8.95;;;1.10;99.90;;;;;;5025837;28;20041;-65
2023/04/27 05:46:44;;;;;;;17.30;8.55;;;1.20;99.90;;;;;;5008640;28;20110;-65
2023/04/27 05:49:10;;;;;;;14.15;8.05;;;1.30;99.90;;;;;;5010230;28;20132;-65
2023/04/27 05:51:37;;;;;;;14.10;8.15;;;1.60;99.90;;;;;;5026492;28;20038;-65
2023/04/27 05:54:03;;;;;;;15.18;8.20;;;1.80;99.90;;;;;;4994373;28;20506;-65
2023/04/27 05:56:28;;;;;;;15.45;7.93;;;1.80;99.90;;;;;;5008996;28;20040;-65
2023/04/27 05:58:54;;;;;;;12.73;7.68;;;1.90;99.90;;;;;;5026294;28;20072;-65
2023/04/27 06:01:20;;;;;;;12.40;6.63;;;1.90;99.90;;;;;;5008655;28;20061;-65
2023/04/27 06:03:46;;;;;;;15.68;7.95;;;2.00;99.90;;;;;;5021882;28;20049;-65
2023/04/27 06:06:12;;;;;;;12.20;7.35;;;2.10;99.90;;;;;;5024599;28;20106;-65
2023/04/27 06:08:38;;;;;;;18.17;7.85;;;2.20;99.90;;;;;;5024369;28;20041;-65
2023/04/27 06:11:04;;;;;;;12.48;6.93;;;2.40;99.90;;;;;;5024795;28;20041;-65
2023/04/27 06:13:32;;;;;;;11.55;6.47;;;2.50;99.90;;;;;;4994170;28;20045;-65
2023/04/27 06:15:58;;;;;;;14.57;7.07;;;2.70;99.90;;;;;;5026280;28;20037;-65
2023/04/27 06:18:23;;;;;;;10.75;6.43;;;3.00;99.90;;;;;;5024902;28;20546;-65
2023/04/27 06:20:49;;;;;;;10.80;6.20;;;3.20;99.90;;;;;;5022258;28;20061;-65
2023/04/27 06:23:15;;;;;;;10.38;6.53;;;3.30;99.90;;;;;;5011755;28;20041;-65
2023/04/27 06:25:40;;;;;;;11.93;6.43;;;3.60;99.90;;;;;;5013320;28;20175;-65
2023/04/27 06:28:06;;;;;;;14.65;6.57;;;3.70;99.90;;;;;;5027860;28;20107;-65
2023/04/27 06:30:32;;;;;;;10.88;5.93;;;3.90;99.90;;;;;;4989668;28;20717;-65
2023/04/27 06:32:58;;;;;;;15.07;5.47;;;4.00;99.90;;;;;;5028307;28;20076;-65
2023/04/27 06:35:23;;;;;;;9.57;5.93;;;4.10;99.90;;;;;;5030276;28;20037;-66
2023/04/27 06:37:50;;;;;;;14.43;5.32;;;4.30;99.90;;;;;;4997441;28;20069;-65
2023/04/27 06:40:16;;;;;;;8.35;5.35;;;4.60;99.90;;;;;;5013589;28;20198;-66
2023/04/27 06:42:41;;;;;;;7.25;4.95;;;4.70;99.90;;;;;;5009360;28;20570;-66
2023/04/27 06:45:07;;;;;;;9.13;5.60;;;4.90;99.90;;;;;;5013223;28;20033;-65
2023/04/27 06:47:33;;;;;;;9.68;5.18;;;5.10;99.90;;;;;;5009604;28;20124;-66
2023/04/27 06:49:59;;;;;;;9.68;4.18;;;5.10;99.90;;;;;;5029072;28;20128;-66
2023/04/27 06:52:25;;;;;;;10.00;4.63;;;5.30;99.90;;;;;;5029218;28;20045;-65
2023/04/27 06:54:50;;;;;;;7.82;4.45;;;5.50;99.90;;;;;;5028888;28;20037;-65
2023/04/27 06:57:16;;;;;;;11.55;4.95;;;5.60;99.90;;;;;;5013493;28;20564;-65
2023/04/27 06:59:42;;;;;;;9.55;4.80;;;5.70;99.90;;;;;;5012538;28;20048;-65
2023/04/27 07:02:08;;;;;;;10.52;4.38;;;5.80;99.90;;;;;;5037894;28;20111;-65
2023/04/27 07:04:33;;;;;;;6.95;4.30;;;6.00;99.90;;;;;;5031147;28;20091;-65
2023/04/27 07:06:59;;;;;;;8.95;4.05;;;6.10;99.90;;;;;;5009964;28;20454;-65
2023/04/27 07:09:26;;;;;;;5.72;3.20;;;6.30;99.90;;;;;;5032245;28;20048;-66
2023/04/27 07:11:51;;;;;;;5.85;3.72;;;6.40;99.90;;;;;;5032906;28;20043;-66
2023/04/27 07:14:17;;;;;;;6.30;3.50;;;6.60;99.90;;;;;;5031119;28;20119;-66
2023/04/27 07:16:43;;;;;;;7.32;3.38;;;7.10;99.90;;;;;;5015176;28;20107;-66
2023/04/27 07:19:09;;;;;;;5.40;3.03;;;8.10;99.90;;;;;;5033115;28;20505;-67
2023/04/27 07:21:35;;;;;;;5.28;3.72;;;9.10;99.90;;;;;;5031476;28;20051;-67
2023/04/27 07:24:02;;;;;;;8.07;3.60;;;9.70;99.90;;;;;;4998639;28;20048;-68
2023/04/27 07:26:30;;;;;;;8.20;3.30;;;10.50;99.90;;;;;;5032376;28;20064;-67
2023/04/27 07:28:56;;;;;;;5.03;3.15;;;11.00;99.90;;;;;;5032523;28;20106;-67
2023/04/27 07:31:22;;;;;;;6.80;3.42;;;11.40;99.90;;;;;;5014160;28;20040;-67
2023/04/27 07:33:48;;;;;;;5.25;3.22;;;11.60;99.90;;;;;;5030357;28;20406;-67
2023/04/27 07:36:13;;;;;;;9.65;3.42;;;11.60;99.90;;;;;;5030239;28;20405;-67
2023/04/27 07:38:39;;;;;;;8.18;3.72;;;11.90;99.90;;;;;;5011357;28;20037;-67
2023/04/27 07:41:05;;;;;;;5.18;3.72;;;12.50;99.90;;;;;;5007577;28;20095;-67
2023/04/27 07:43:31;;;;;;;8.15;3.67;;;12.90;99.90;;;;;;5032817;28;20430;-67
2023/04/27 07:45:57;;;;;;;5.35;3.38;;;13.10;98.40;;;;;;5030431;28;20501;-67
2023/04/27 07:48:23;;;;;;;5.28;3.47;;;13.00;97.10;;;;;;5015499;28;20049;-67
2023/04/27 07:50:49;;;;;;;8.18;3.55;;;12.90;95.10;;;;;;5032464;28;20037;-67
2023/04/27 07:53:15;;;;;;;5.00;3.10;;;13.00;95.90;;;;;;5028886;28;20024;-67
2023/04/27 07:55:43;;;;;;;6.45;2.92;;;12.80;92.80;;;;;;5026468;28;20040;-67
2023/04/27 07:58:09;;;;;;;4.03;3.08;;;13.10;95.00;;;;;;5025834;28;20499;-67
2023/04/27 08:00:35;;;;;;;3.50;2.50;;;13.20;91.40;;;;;;5027721;28;20602;-67
2023/04/27 08:03:01;;;;;;;5.35;3.08;;;13.40;93.40;;;;;;4991147;28;20151;-67
2023/04/27 08:05:27;;;;;;;5.63;3.20;;;13.30;92.90;;;;;;5025451;28;20064;-66
2023/04/27 08:07:52;;;;;;;6.25;2.75;;;13.30;92.10;;;;;;5044050;28;20073;-67
2023/04/27 08:10:18;;;;;;;5.38;3.03;;;13.40;91.80;;;;;;5008708;28;20040;-67
2023/04/27 08:12:44;;;;;;;4.95;3.00;;;13.70;91.50;;;;;;5009965;28;20083;-67
2023/04/27 08:15:10;;;;;;;3.60;2.70;;;13.70;91.10;;;;;;5030656;28;20120;-67
2023/04/27 08:17:37;;;;;;;4.65;2.80;;;14.10;90.00;;;;;;5009565;28;20042;-68
2023/04/27 08:20:05;;;;;;;6.20;3.05;;;13.40;88.90;;;;;;5016373;28;20045;-68
2023/04/27 08:22:31;;;;;;;5.07;2.70;;;13.60;90.30;;;;;;5008475;28;20159;-68
2023/04/27 08:24:57;;;;;;;9.07;3.55;;;14.20;90.00;;;;;;5011128;28;20149;-68
2023/04/27 08:27:22;;;;;;;6.78;3.30;;;14.20;87.60;;;;;;5026081;28;20072;-67
2023/04/27 08:29:48;;;;;;;6.38;3.17;;;14.20;85.90;;;;;;5027882;28;20128;-67
2023/04/27 08:32:15;;;;;;;5.90;2.90;;;13.50;83.70;;;;;;5025803;28;20029;-67
2023/04/27 08:34:41;;;;;;;5.38;2.95;;;13.60;87.10;;;;;;5028025;28;20134;-67
2023/04/27 08:37:07;;;;;;;6.53;3.05;;;13.80;88.40;;;;;;5027150;28;20051;-68
2023/04/27 08:39:33;;;;;;;4.82;2.55;;;14.00;87.30;;;;;;5026830;28;20116;-67
2023/04/27 08:41:59;;;;;;;6.43;3.10;;;13.90;85.90;;;;;;5028433;28;20449;-67
2023/04/27 08:44:25;;;;;;;4.90;3.10;;;14.60;87.80;;;;;;5025806;28;20136;-67
2023/04/27 08:46:50;;;;;;;3.85;3.25;;;14.80;87.20;;;;;;5010573;28;20375;-68
2023/04/27 08:49:16;;;;;;;5.18;2.90;;;14.50;83.50;;;;;;5027252;28;20073;-68
2023/04/27 08:51:42;;;;;;;4.93;2.95;;;14.80;85.60;;;;;;5013658;28;20041;-68
2023/04/27 08:54:08;;;;;;;4.22;3.40;;;15.20;86.20;;;;;;5029457;28;20040;-68
2023/04/27 08:56:34;;;;;;;7.32;3.30;;;15.20;84.90;;;;;;5028219;28;20044;-67
2023/04/27 08:59:02;;;;;;;4.68;3.20;;;15.00;81.10;;;;;;5012790;28;20119;-67
2023/04/27 09:01:29;;;;;;;4.85;3.22;;;14.70;82.60;;;;;;5014136;28;20429;-67
2023/04/27 09:04:00;;;;;;;5.28;3.67;;;14.10;79.10;;;;;;4998876;28;20048;-67
2023/04/27 09:06:34;;;;;;;3.85;3.25;;;14.10;79.00;;;;;;5030166;28;20527;-68
2023/04/27 09:09:02;;;;;;;4.70;2.90;;;13.90;80.40;;;;;;5011824;28;20044;-67
2023/04/27 09:11:38;;;;;;;4.97;2.92;;;14.00;83.20;;;;;;5029422;28;20040;-68
2023/04/27 09:14:19;;;;;;;7.18;3.47;;;14.20;81.80;;;;;;5028779;28;20533;-67
2023/04/27 09:16:45;;;;;;;4.45;3.00;;;14.30;81.40;;;;;;5028153;28;20041;-68
2023/04/27 09:19:11;;;;;;;4.82;3.30;;;14.60;81.20;;;;;;5047952;28;20048;-67
2023/04/27 09:21:37;;;;;;;5.32;3.42;;;14.80;80.30;;;;;;5010614;28;20033;-67
2023/04/27 09:24:11;;;;;;;3.75;2.60;;;14.80;78.20;;;;;;5030045;28;20044;-67
2023/04/27 09:26:37;;;;;;;3.78;2.80;;;13.60;77.80;;;;;;5029619;28;20114;-67
2023/04/27 09:29:03;;;;;;;3.88;3.00;;;13.60;80.00;;;;;;5030071;28;20494;-67
2023/04/27 09:31:32;;;;;;;6.32;3.45;;;13.90;81.10;;;;;;5029838;28;20086;-67
2023/04/27 09:33:58;;;;;;;9.30;3.30;;;14.10;77.90;;;;;;5028674;28;20540;-67
2023/04/27 09:36:24;;;;;;;3.78;2.92;;;14.10;77.90;;;;;;5029121;28;20033;-67
2023/04/27 09:38:53;;;;;;;3.78;3.00;;;13.70;78.90;;;;;;5028996;28;20057;-68
2023/04/27 09:41:19;;;;;;;3.78;3.38;;;14.30;80.20;;;;;;5029458;28;20064;-67
2023/04/27 09:43:46;;;;;;;8.02;3.72;;;14.50;77.80;;;;;;5013147;28;20528;-67
2023/04/27 09:46:15;;;;;;;4.28;3.00;;;14.10;76.40;;;;;;5028320;28;20059;-67
2023/04/27 09:48:41;;;;;;;4.80;3.05;;;13.60;77.10;;;;;;5029295;28;20353;-67
2023/04/27 09:51:07;;;;;;;4.57;2.80;;;13.40;77.10;;;;;;5029779;28;20394;-67
2023/04/27 09:53:50;;;;;;;5.32;3.10;;;13.80;78.60;;;;;;5011139;28;20048;-67
2023/04/27 09:56:43;;;;;;;6.53;3.20;;;14.20;78.00;;;;;;5044876;28;20509;-67
2023/04/27 09:59:36;;;;;;;5.88;3.30;;;14.10;75.40;;;;;;5010672;28;20079;-67
2023/04/27 10:02:04;;;;;;;7.60;4.07;;;14.30;76.30;;;;;;5028786;28;20128;-67
2023/04/27 10:05:09;;;;;;;5.72;3.40;;;14.10;74.50;;;;;;5028816;28;20041;-67
2023/04/27 10:07:37;;;;;;;4.38;3.22;;;13.90;75.30;;;;;;5028657;28;20052;-67
2023/04/27 10:10:04;;;;;;;4.47;3.70;;;14.40;76.50;;;;;;5028360;28;20049;-67
2023/04/27 10:12:35;;;;;;;5.18;3.40;;;14.30;76.00;;;;;;4996617;28;20043;-67
2023/04/27 10:15:13;;;;;;;6.13;3.60;;;14.40;76.40;;;;;;5027928;28;20029;-67
2023/04/27 10:17:46;;;;;;;5.15;3.47;;;14.50;74.20;;;;;;5012095;28;20029;-67
2023/04/27 10:20:12;;;;;;;4.57;3.65;;;14.50;74.40;;;;;;5013304;28;20308;-67
2023/04/27 10:22:38;;;;;;;5.93;3.63;;;13.90;73.90;;;;;;5012953;28;20036;-67
2023/04/27 10:25:17;;;;;;;6.47;4.13;;;13.80;75.30;;;;;;5029982;28;20174;-67
2023/04/27 10:27:49;;;;;;;4.85;3.63;;;13.60;73.80;;;;;;5029222;28;20067;-67
2023/04/27 10:30:17;;;;;;;5.60;4.40;;;13.60;75.50;;;;;;5021348;28;20045;-67
2023/04/27 10:33:04;;;;;;;6.35;4.40;;;13.00;76.60;;;;;;5011536;28;20040;-68
2023/04/27 10:35:34;;;;;;;5.88;3.80;;;13.20;75.60;;;;;;5027770;28;20033;-67
2023/04/27 10:38:09;;;;;;;4.25;3.67;;;13.30;76.00;;;;;;5028834;28;20060;-67
2023/04/27 10:40:38;;;;;;;4.93;3.78;;;13.70;75.70;;;;;;5027154;28;20099;-67
2023/04/27 10:43:15;;;;;;;5.43;3.53;;;13.90;76.60;;;;;;5014786;28;20048;-66
2023/04/27 10:45:44;;;;;;;5.07;3.85;;;14.00;76.60;;;;;;5024581;28;20033;-67
2023/04/27 10:48:14;;;;;;;6.75;3.97;;;13.90;78.10;;;;;;5025561;28;20102;-66
2023/04/27 10:50:41;;;;;;;5.00;3.90;;;14.30;77.50;;;;;;5044139;28;20044;-67
2023/04/27 10:53:07;;;;;;;4.53;3.65;;;14.50;77.60;;;;;;5011073;28;20116;-67
2023/04/27 10:55:34;;;;;;;5.40;3.97;;;14.60;76.00;;;;;;5026875;28;20071;-67
2023/04/27 10:58:01;;;;;;;7.10;3.80;;;14.30;73.70;;;;;;5028946;28;20047;-66
2023/04/27 11:00:43;;;;;;;7.35;4.25;;;14.20;75.20;;;;;;5023846;28;20041;-66
2023/04/27 11:03:20;;;;;;;6.15;4.05;;;14.10;74.30;;;;;;5026894;28;20124;-68
2023/04/27 11:05:47;;;;;;;5.60;3.92;;;13.20;73.20;;;;;;5026161;28;20041;-67
2023/04/27 11:08:16;;;;;;;8.27;4.55;;;13.10;75.70;;;;;;5011709;28;20489;-67
2023/04/27 11:10:49;;;;;;;57.70;15.00;;;13.00;75.10;;;;;;5025195;28;20108;-67
2023/04/27 11:13:20;;;;;;;77.28;27.55;;;13.10;76.10;;;;;;5018877;28;20056;-67
2023/04/27 11:15:57;;;;;;;28.30;10.73;;;13.10;76.40;;;;;;5010944;28;20037;-66
2023/04/27 11:18:32;;;;;;;11.55;6.00;;;13.10;75.90;;;;;;5027904;28;20421;-69
2023/04/27 11:21:19;;;;;;;10.00;4.60;;;13.20;76.90;;;;;;5027843;28;20051;-67
2023/04/27 11:23:45;;;;;;;8.30;4.10;;;13.40;77.00;;;;;;5042424;28;20788;-69
2023/04/27 11:26:15;;;;;;;12.07;4.95;;;13.50;75.10;;;;;;5026522;28;20063;-66
2023/04/27 11:28:42;;;;;;;7.68;4.32;;;13.60;75.30;;;;;;5025450;28;20037;-66
2023/04/27 11:31:08;;;;;;;7.88;4.60;;;13.80;77.00;;;;;;5010244;28;20124;-66
2023/04/27 11:33:34;;;;;;;6.07;4.97;;;13.80;75.90;;;;;;5027275;28;20446;-66
2023/04/27 11:36:00;;;;;;;6.20;3.95;;;13.60;75.00;;;;;;5026620;28;20060;-66
2023/04/27 11:38:32;;;;;;;9.48;4.07;;;13.60;73.10;;;;;;5026569;28;20067;-67
2023/04/27 11:41:06;;;;;;;7.93;3.92;;;13.40;73.60;;;;;;5024464;28;20037;-66
2023/04/27 11:43:33;;;;;;;6.07;3.78;;;13.60;73.70;;;;;;5025684;28;20120;-67
2023/04/27 11:46:03;;;;;;;5.05;3.28;;;13.90;75.60;;;;;;5027722;28;20052;-65
2023/04/27 11:48:29;;;;;;;6.40;4.03;;;14.00;72.70;;;;;;5043724;28;20367;-66
2023/04/27 11:51:00;;;;;;;87.10;24.23;;;14.00;73.50;;;;;;5026754;28;20071;-66
2023/04/27 11:53:33;;;;;;;7.90;4.38;;;14.00;74.40;;;;;;5026028;28;20562;-66
2023/04/27 11:56:04;;;;;;;6.45;4.00;;;14.10;75.30;;;;;;5026768;28;20481;-66
2023/04/27 11:58:34;;;;;;;6.60;3.70;;;14.00;70.90;;;;;;5026656;28;20475;-66
2023/04/27 12:01:01;;;;;;;6.93;4.28;;;14.00;72.00;;;;;;4993218;28;20104;-66
2023/04/27 12:03:27;;;;;;;5.78;3.63;;;14.00;72.00;;;;;;5026950;28;20448;-65
2023/04/27 12:05:53;;;;;;;5.22;4.18;;;13.80;70.00;;;;;;5027686;28;20048;-65
2023/04/27 12:08:19;;;;;;;6.65;3.70;;;13.80;71.80;;;;;;5043489;28;20032;-65
2023/04/27 12:10:45;;;;;;;7.55;4.03;;;13.80;71.60;;;;;;5027242;28;20509;-65
2023/04/27 12:13:13;;;;;;;5.15;3.85;;;14.10;71.30;;;;;;5025303;28;20033;-65
2023/04/27 12:15:39;;;;;;;5.35;4.03;;;14.50;71.20;;;;;;5026997;28;20029;-65
2023/04/27 12:18:05;;;;;;;9.95;4.00;;;14.50;72.10;;;;;;5044154;28;20045;-66
2023/04/27 12:20:31;;;;;;;7.40;3.90;;;14.90;72.90;;;;;;5026376;28;20040;-66
2023/04/27 12:22:57;;;;;;;51.83;16.15;;;15.30;72.20;;;;;;5029897;28;20048;-66
2023/04/27 12:25:23;;;;;;;8.55;4.15;;;15.60;70.00;;;;;;5015885;28;20041;-66
2023/04/27 12:27:49;;;;;;;9.30;4.15;;;15.40;68.40;;;;;;5028739;28;20040;-66
2023/04/27 12:30:16;;;;;;;7.43;4.60;;;15.50;70.60;;;;;;5029054;28;20041;-67
2023/04/27 12:32:42;;;;;;;5.70;4.03;;;15.60;69.50;;;;;;5028926;28;20037;-67
2023/04/27 12:35:09;;;;;;;6.38;4.15;;;15.70;70.10;;;;;;5029724;28;20037;-67
2023/04/27 12:37:35;;;;;;;6.55;3.92;;;15.80;70.90;;;;;;5031105;28;20615;-67
2023/04/27 12:40:05;;;;;;;4.28;3.70;;;15.90;70.00;;;;;;5031499;28;20098;-67
2023/04/27 12:42:31;;;;;;;5.70;3.85;;;16.10;68.90;;;;;;5028384;28;20572;-67
2023/04/27 12:44:57;;;;;;;5.97;3.50;;;16.00;67.90;;;;;;5029159;28;20136;-67